Terminal Aerodrome Forecast
Issued by NWS Cleveland, OH

Home | Current Version | Previous Version | Graphics & Text | Print | Product List | Glossary On
Versions: 1 2 3 4 5 6 7 8 9 10 11 12 13 14 15 16 17 18 19 20 21 22
000
FTUS41 KCLE 241100
TAFTOL
TAF
KTOL 241130Z 2412/2512 04004KT 4SM BR SCT010 BKN250
      TEMPO 2412/2415 6SM BR BKN010
     FM241500 07008KT P6SM BKN020
     FM241800 07008KT P6SM SCT035 BKN250
     FM250100 08004KT P6SM SCT100
     FM250900 13003KT 3SM BR SCT080=

USA.gov is the U.S. government's official web portal to all federal, state and local government web resources and services.